Time;durP1;ratioP1;P1;durP2;ratioP2;P2;SDS_P1;SDS_P2;PMS_P1;PMS_P2;Temp;Humidity;BMP_temperature;BMP_pressure;BME280_temperature;BME280_humidity;BME280_pressure;Samples;Min_cycle;Max_cycle;Signal;HPM_P1;HPM_P2
2022/04/24 00:00:22;;;;;;;17.00;11.70;;;;;;;4.04;82.10;95785.97;107861;1267;39873;-78
2022/04/24 00:03:08;;;;;;;16.70;10.90;;;;;;;3.82;82.05;95783.00;107906;1268;34634;-77
2022/04/24 00:05:39;;;;;;;12.60;9.50;;;;;;;3.69;83.28;95780.48;107925;1267;30547;-78
2022/04/24 00:08:09;;;;;;;;;;;;;;;3.77;84.41;95780.57;107934;1268;32837;-78
2022/04/24 00:10:40;;;;;;;16.10;11.80;;;;;;;3.95;84.42;95782.23;107878;1268;34299;-77
2022/04/24 00:13:11;;;;;;;15.70;11.30;;;;;;;4.05;84.09;95776.17;108015;1267;45482;-79
2022/04/24 00:15:42;;;;;;;15.50;12.00;;;;;;;4.12;83.80;95769.34;107838;1267;111877;-79
2022/04/24 00:18:14;;;;;;;17.60;13.50;;;;;;;4.14;83.69;95766.30;108022;1266;35450;-79
2022/04/24 00:20:46;;;;;;;17.70;13.70;;;;;;;4.25;83.98;95758.15;107975;1267;62112;-78
2022/04/24 00:23:17;;;;;;;21.20;14.90;;;;;;;4.32;83.70;95758.95;107904;1268;37156;-79
2022/04/24 00:25:48;;;;;;;23.90;15.70;;;;;;;4.35;83.56;95757.36;107914;1267;39533;-79
2022/04/24 00:28:18;;;;;;;22.00;14.20;;;;;;;4.33;83.43;95752.28;107797;1268;34302;-79
2022/04/24 00:30:49;;;;;;;18.40;13.80;;;;;;;4.33;83.51;95751.70;107827;1268;44721;-79
2022/04/24 00:33:20;;;;;;;19.90;13.50;;;;;;;4.38;83.54;95747.52;107905;1268;36355;-79
2022/04/24 00:35:49;;;;;;;;;;;;;;;4.47;83.36;95747.00;107885;1268;32732;-79
2022/04/24 00:38:20;;;;;;;15.40;11.30;;;;;;;4.52;83.39;95740.31;107801;1270;33614;-79
2022/04/24 00:40:52;;;;;;;13.80;11.20;;;;;;;4.58;83.40;95730.34;107936;1268;31326;-79
2022/04/24 00:43:22;;;;;;;12.90;10.80;;;;;;;4.61;83.16;95729.85;107640;1267;341625;-79
2022/04/24 00:46:00;;;;;;;15.60;12.50;;;;;;;4.62;83.19;95727.48;107886;1267;32951;-79
2022/04/24 00:48:32;;;;;;;12.90;10.80;;;;;;;4.64;83.10;95727.92;107891;1267;34606;-79
2022/04/24 00:51:03;;;;;;;13.00;10.80;;;;;;;4.60;83.06;95732.64;107787;1268;34913;-78
2022/04/24 00:53:35;;;;;;;16.30;11.20;;;;;;;4.49;83.23;95729.52;107843;1267;37126;-78
2022/04/24 00:56:07;;;;;;;14.20;10.80;;;;;;;4.46;84.02;95730.52;107939;1267;32570;-78
2022/04/24 00:58:38;;;;;;;14.20;11.80;;;;;;;4.45;84.57;95727.16;107965;1268;33674;-78
2022/04/24 01:01:08;;;;;;;12.80;10.70;;;;;;;4.47;84.72;95724.12;107924;1267;36200;-78
2022/04/24 01:03:40;;;;;;;14.00;11.10;;;;;;;4.51;84.94;95724.34;107866;1267;30582;-78
2022/04/24 01:06:12;;;;;;;12.90;11.40;;;;;;;4.56;84.59;95719.41;107840;1267;35501;-78
2022/04/24 01:08:43;;;;;;;13.30;11.20;;;;;;;4.62;84.24;95717.63;107931;1268;31935;-78
2022/04/24 01:11:14;;;;;;;15.80;12.50;;;;;;;4.62;83.68;95715.00;108046;1268;36266;-78
2022/04/24 01:13:45;;;;;;;15.50;11.00;;;;;;;4.62;83.54;95711.06;107937;1267;64106;-78
2022/04/24 01:16:16;;;;;;;12.30;9.50;;;;;;;4.58;83.72;95715.00;107926;1267;33859;-78
2022/04/24 01:18:46;;;;;;;12.20;10.20;;;;;;;4.51;83.92;95712.05;107840;1268;32696;-78
2022/04/24 01:21:17;;;;;;;15.90;12.90;;;;;;;4.58;84.75;95714.00;107845;1268;47772;-78
2022/04/24 01:23:49;;;;;;;13.30;10.60;;;;;;;4.82;84.60;95719.95;107993;1267;34647;-78
2022/04/24 01:26:19;;;;;;;14.10;12.00;;;;;;;4.89;84.47;95718.78;107867;1268;32479;-78
2022/04/24 01:28:50;;;;;;;14.40;12.40;;;;;;;4.99;84.27;95712.90;107766;1268;39463;-78
2022/04/24 01:31:21;;;;;;;16.10;13.10;;;;;;;5.06;83.81;95711.27;107918;1267;38555;-78
2022/04/24 01:33:52;;;;;;;14.40;12.70;;;;;;;5.10;83.65;95702.54;107783;1268;31316;-78
2022/04/24 01:36:23;;;;;;;15.40;13.30;;;;;;;5.11;83.29;95696.02;107832;1268;33984;-78
2022/04/24 01:38:54;;;;;;;16.30;14.10;;;;;;;5.09;83.50;95693.50;107891;1268;36115;-78
2022/04/24 01:41:25;;;;;;;14.60;12.50;;;;;;;5.01;83.18;95694.14;107852;1267;45477;-78
2022/04/24 01:43:56;;;;;;;14.90;13.10;;;;;;;4.96;83.09;95691.27;107899;1268;36190;-78
2022/04/24 01:46:27;;;;;;;14.10;11.80;;;;;;;4.94;83.00;95692.16;107788;1270;33765;-78
2022/04/24 01:48:57;;;;;;;15.60;13.40;;;;;;;4.88;83.15;95693.20;107829;1268;57282;-78
2022/04/24 01:51:29;;;;;;;16.60;13.90;;;;;;;4.84;83.18;95696.89;107915;1267;44643;-78
2022/04/24 01:54:00;;;;;;;16.80;14.00;;;;;;;4.83;83.27;95698.48;107957;1268;34923;-78
2022/04/24 01:56:30;;;;;;;16.30;13.70;;;;;;;4.84;83.32;95700.77;107898;1268;36358;-78
2022/04/24 01:59:01;;;;;;;16.60;14.00;;;;;;;4.86;83.58;95699.36;107744;1268;35759;-78
2022/04/24 02:01:32;;;;;;;18.20;13.90;;;;;;;4.88;83.52;95694.41;107772;1267;35986;-78
2022/04/24 02:04:03;;;;;;;17.70;13.80;;;;;;;4.91;83.56;95694.05;107990;1268;31729;-78
2022/04/24 02:06:34;;;;;;;13.70;11.90;;;;;;;4.94;83.82;95695.53;107874;1268;34388;-78
2022/04/24 02:09:05;;;;;;;15.50;12.10;;;;;;;4.86;84.50;95686.02;107865;1268;33180;-78
2022/04/24 02:11:36;;;;;;;17.50;14.00;;;;;;;4.80;84.67;95681.46;107955;1268;32645;-78
2022/04/24 02:14:06;;;;;;;18.80;14.90;;;;;;;4.90;84.69;95678.98;107840;1268;30641;-78
2022/04/24 02:16:37;;;;;;;16.30;14.00;;;;;;;4.99;84.44;95675.39;107946;1268;35901;-78
2022/04/24 02:19:08;;;;;;;17.20;13.80;;;;;;;5.03;84.36;95673.17;107850;1267;32626;-78
2022/04/24 02:21:39;;;;;;;15.30;12.40;;;;;;;5.06;84.35;95668.55;107950;1267;30245;-78
2022/04/24 02:24:10;;;;;;;17.50;14.40;;;;;;;5.10;84.36;95668.86;107761;1268;33265;-78
2022/04/24 02:26:41;;;;;;;15.10;13.50;;;;;;;5.13;84.25;95667.48;108012;1268;32680;-78
2022/04/24 02:29:12;;;;;;;16.50;13.60;;;;;;;5.18;84.22;95673.24;107954;1265;33942;-78
2022/04/24 02:31:45;;;;;;;15.90;12.70;;;;;;;5.21;84.01;95676.92;107806;1268;38326;-78
2022/04/24 02:34:19;;;;;;;17.40;14.50;;;;;;;5.23;84.03;95677.92;107781;1268;34736;-78
2022/04/24 02:36:50;;;;;;;17.40;14.80;;;;;;;5.24;84.01;95680.23;107863;1268;35399;-76
2022/04/24 02:39:21;;;;;;;18.10;13.70;;;;;;;5.25;83.91;95678.60;107809;1268;32349;-78
2022/04/24 02:41:51;;;;;;;14.20;11.60;;;;;;;5.26;83.96;95673.07;107891;1267;38640;-77
2022/04/24 02:44:22;;;;;;;14.80;12.20;;;;;;;5.27;83.99;95665.24;107771;1268;37989;-78
2022/04/24 02:46:53;;;;;;;14.60;12.50;;;;;;;5.26;84.13;95659.88;107880;1268;32687;-78
2022/04/24 02:49:24;;;;;;;14.60;12.90;;;;;;;5.27;83.88;95660.77;107849;1267;33379;-78
2022/04/24 02:51:55;;;;;;;15.60;13.80;;;;;;;5.30;83.86;95653.09;107808;1270;32798;-78
2022/04/24 02:54:26;;;;;;;15.10;13.50;;;;;;;5.34;83.61;95645.89;107927;1267;37547;-78
2022/04/24 02:56:57;;;;;;;14.80;13.20;;;;;;;5.37;83.58;95647.61;107869;1268;46979;-78
2022/04/24 02:59:29;;;;;;;14.30;12.40;;;;;;;5.40;83.55;95644.65;107860;1267;44216;-78
2022/04/24 03:02:00;;;;;;;16.40;13.70;;;;;;;5.43;83.69;95644.95;107878;1268;83878;-78
2022/04/24 03:04:31;;;;;;;13.70;12.10;;;;;;;5.47;83.64;95642.62;107806;1270;32559;-77
2022/04/24 03:07:02;;;;;;;15.40;13.00;;;;;;;5.50;83.53;95639.89;107828;1267;31122;-78
2022/04/24 03:09:33;;;;;;;17.50;13.30;;;;;;;5.52;83.52;95642.36;107897;1267;28980;-77
2022/04/24 03:12:04;;;;;;;15.60;12.90;;;;;;;5.50;83.85;95643.77;107887;1267;36330;-78
2022/04/24 03:14:34;;;;;;;15.00;13.30;;;;;;;5.50;84.11;95647.73;107885;1267;34424;-78
2022/04/24 03:17:06;;;;;;;13.60;12.10;;;;;;;5.51;84.49;95650.88;107861;1268;34085;-77
2022/04/24 03:19:36;;;;;;;14.50;12.70;;;;;;;5.51;84.77;95657.86;107894;1267;30096;-77
2022/04/24 03:22:08;;;;;;;14.00;12.30;;;;;;;5.52;84.81;95659.23;107898;1268;32054;-77
2022/04/24 03:24:38;;;;;;;16.10;13.20;;;;;;;5.55;84.89;95658.37;107788;1268;33575;-77
2022/04/24 03:27:09;;;;;;;16.70;13.90;;;;;;;5.59;84.33;95654.66;107834;1268;34752;-77
2022/04/24 03:29:40;;;;;;;14.90;13.00;;;;;;;5.63;84.36;95661.34;107844;1266;36446;-78
2022/04/24 03:32:12;;;;;;;16.80;14.40;;;;;;;5.63;84.50;95663.60;107902;1268;40619;-78
2022/04/24 03:34:43;;;;;;;17.00;14.50;;;;;;;5.62;84.77;95657.74;107969;1268;38060;-77
2022/04/24 03:37:14;;;;;;;17.80;15.90;;;;;;;5.62;84.90;95655.59;107962;1268;27423;-77
2022/04/24 03:39:45;;;;;;;24.80;20.30;;;;;;;5.62;85.27;95656.70;107885;1268;41632;-77
2022/04/24 03:42:16;;;;;;;20.10;16.80;;;;;;;5.58;85.57;95654.62;107893;1268;33582;-77
2022/04/24 03:44:46;;;;;;;15.50;13.10;;;;;;;5.55;85.93;95658.73;107747;1269;39811;-77
2022/04/24 03:47:18;;;;;;;18.00;15.70;;;;;;;5.54;85.64;95656.48;107766;1268;42263;-77
2022/04/24 03:49:49;;;;;;;18.20;16.00;;;;;;;5.54;85.86;95658.64;107779;1269;36011;-77
2022/04/24 03:52:19;;;;;;;18.40;16.00;;;;;;;5.54;85.98;95662.63;107899;1267;41713;-77
2022/04/24 03:54:50;;;;;;;16.60;14.50;;;;;;;5.53;86.22;95663.79;107859;1268;38947;-78
2022/04/24 03:57:21;;;;;;;16.60;14.50;;;;;;;5.53;85.87;95661.02;107859;1268;36331;-77
2022/04/24 03:59:52;;;;;;;16.90;15.10;;;;;;;5.51;85.92;95662.64;107883;1268;34475;-77
2022/04/24 04:02:23;;;;;;;16.00;13.50;;;;;;;5.47;85.81;95669.85;107900;1267;32733;-78
2022/04/24 04:04:54;;;;;;;18.10;14.80;;;;;;;5.47;86.23;95666.64;107917;1268;41328;-78
2022/04/24 04:07:25;;;;;;;15.60;13.80;;;;;;;5.45;86.51;95664.86;107874;1268;33699;-78
2022/04/24 04:09:56;;;;;;;18.50;15.00;;;;;;;5.47;86.62;95664.11;107786;1268;36922;-78
2022/04/24 04:12:30;;;;;;;18.80;15.10;;;;;;;5.48;86.32;95658.45;107815;1268;35443;-78
2022/04/24 04:15:03;;;;;;;19.50;15.20;;;;;;;5.51;86.55;95656.55;107769;1268;33777;-78
2022/04/24 04:17:34;;;;;;;17.30;15.50;;;;;;;5.48;86.75;95656.11;107903;1267;38949;-77
2022/04/24 04:20:11;;;;;;;16.80;14.70;;;;;;;5.49;86.86;95655.17;107864;1268;36229;-78
2022/04/24 04:22:52;;;;;;;19.30;16.20;;;;;;;5.51;87.17;95655.13;107927;1268;36955;-78
2022/04/24 04:25:23;;;;;;;16.90;14.50;;;;;;;5.51;87.24;95663.70;107851;1268;41844;-78
2022/04/24 04:27:54;;;;;;;16.90;14.90;;;;;;;5.52;87.83;95662.60;107762;1268;34897;-78
2022/04/24 04:30:26;;;;;;;17.00;14.40;;;;;;;5.52;87.97;95667.91;107799;1267;36221;-77
2022/04/24 04:32:57;;;;;;;18.90;15.70;;;;;;;5.55;88.10;95668.41;107905;1268;38638;-78
2022/04/24 04:35:28;;;;;;;18.60;15.90;;;;;;;5.57;88.26;95671.03;107805;1268;34756;-77
2022/04/24 04:37:59;;;;;;;17.20;15.20;;;;;;;5.59;88.38;95665.86;107875;1268;34623;-78
2022/04/24 04:40:30;;;;;;;18.10;16.10;;;;;;;5.63;88.39;95662.75;107924;1268;34126;-78
2022/04/24 04:43:01;;;;;;;19.40;17.30;;;;;;;5.65;88.54;95662.02;107827;1267;39372;-77
2022/04/24 04:45:32;;;;;;;20.30;16.50;;;;;;;5.68;88.70;95669.99;107786;1269;35047;-78
2022/04/24 04:48:04;;;;;;;18.60;16.20;;;;;;;5.61;89.17;95674.58;107868;1268;33158;-77
2022/04/24 04:50:35;;;;;;;19.00;16.50;;;;;;;5.59;88.97;95676.48;107953;1268;33508;-77
2022/04/24 04:53:06;;;;;;;19.20;17.10;;;;;;;5.61;88.75;95675.41;107859;1268;47724;-78
2022/04/24 04:55:37;;;;;;;18.40;16.50;;;;;;;5.62;88.88;95672.27;107866;1268;34566;-78
2022/04/24 04:58:08;;;;;;;18.80;16.40;;;;;;;5.66;88.98;95676.10;107853;1267;31963;-78
2022/04/24 05:00:39;;;;;;;20.00;17.60;;;;;;;5.72;89.24;95674.48;107884;1268;35043;-77
2022/04/24 05:03:10;;;;;;;20.80;18.50;;;;;;;5.76;89.09;95674.05;107911;1268;32351;-78
2022/04/24 05:05:42;;;;;;;20.20;17.90;;;;;;;5.79;89.07;95671.16;107922;1268;32313;-78
2022/04/24 05:08:12;;;;;;;21.10;17.30;;;;;;;5.85;89.42;95669.91;107841;1268;47555;-78
2022/04/24 05:10:44;;;;;;;20.30;18.20;;;;;;;5.90;89.43;95671.00;107930;1268;32871;-78
2022/04/24 05:13:17;;;;;;;20.00;18.00;;;;;;;5.94;89.42;95669.52;107731;1269;42325;-78
2022/04/24 05:15:51;;;;;;;19.70;17.60;;;;;;;5.99;89.53;95660.23;107669;1269;81463;-78
2022/04/24 05:18:22;;;;;;;18.30;16.30;;;;;;;6.03;89.86;95650.58;107765;1268;58765;-78
2022/04/24 05:20:53;;;;;;;17.20;15.10;;;;;;;6.07;89.88;95649.10;107766;1270;34278;-78
2022/04/24 05:23:24;;;;;;;17.10;14.20;;;;;;;6.12;90.14;95644.95;107764;1268;36507;-77
2022/04/24 05:25:55;;;;;;;17.90;15.10;;;;;;;6.17;90.46;95636.07;107693;1268;45491;-77
2022/04/24 05:28:26;;;;;;;18.10;16.20;;;;;;;6.20;90.14;95635.11;107815;1270;38716;-77
2022/04/24 05:30:57;;;;;;;20.40;18.10;;;;;;;6.26;90.15;95651.13;107920;1268;40607;-77
2022/04/24 05:33:28;;;;;;;20.20;18.00;;;;;;;6.24;90.42;95655.40;107859;1268;34792;-77
2022/04/24 05:35:59;;;;;;;19.50;16.70;;;;;;;6.28;90.05;95654.05;107878;1268;34591;-77
2022/04/24 05:38:30;;;;;;;19.90;16.10;;;;;;;6.31;90.36;95658.34;107726;1269;48088;-78
2022/04/24 05:41:01;;;;;;;17.10;15.40;;;;;;;6.30;90.79;95653.77;107733;1270;43634;-77
2022/04/24 05:43:32;;;;;;;16.10;14.00;;;;;;;6.36;91.22;95656.48;107792;1268;46539;-77
2022/04/24 05:46:03;;;;;;;19.50;16.70;;;;;;;6.51;91.22;95651.88;107842;1268;31995;-78
2022/04/24 05:48:34;;;;;;;20.80;17.60;;;;;;;6.69;91.41;95648.05;107877;1268;34238;-77
2022/04/24 05:51:05;;;;;;;16.90;14.90;;;;;;;6.90;91.41;95643.86;107862;1268;40184;-77
2022/04/24 05:53:37;;;;;;;16.30;14.60;;;;;;;7.06;91.32;95641.49;107802;1268;39605;-77
2022/04/24 05:56:08;;;;;;;16.70;15.00;;;;;;;7.21;91.32;95631.16;107856;1268;33463;-78
2022/04/24 05:58:39;;;;;;;18.00;16.10;;;;;;;7.41;91.49;95625.46;107780;1268;37332;-77
2022/04/24 06:01:10;;;;;;;17.10;15.30;;;;;;;7.69;91.69;95621.85;107820;1269;44705;-77
2022/04/24 06:03:41;;;;;;;17.20;15.40;;;;;;;7.92;91.17;95622.28;107848;1269;34548;-77
2022/04/24 06:06:12;;;;;;;17.80;16.00;;;;;;;8.01;90.52;95615.73;107898;1268;36722;-77
2022/04/24 06:08:43;;;;;;;19.00;17.00;;;;;;;8.13;90.37;95613.75;107926;1268;31286;-77
2022/04/24 06:11:14;;;;;;;17.00;15.20;;;;;;;8.41;90.42;95608.11;107920;1268;33392;-77
2022/04/24 06:13:45;;;;;;;16.80;15.10;;;;;;;8.67;89.95;95604.27;107726;1269;102839;-78
2022/04/24 06:16:16;;;;;;;16.40;14.70;;;;;;;8.90;89.47;95603.98;107732;1268;42434;-78
2022/04/24 06:18:50;;;;;;;15.50;13.90;;;;;;;9.48;89.77;95600.55;107809;1271;33759;-78
2022/04/24 06:21:23;;;;;;;14.40;12.90;;;;;;;10.45;89.65;95595.65;107778;1268;32761;-78
2022/04/24 06:23:54;;;;;;;13.40;11.90;;;;;;;10.68;87.09;95593.42;107791;1268;38363;-78
2022/04/24 06:26:27;;;;;;;12.40;11.10;;;;;;;10.76;85.71;95590.23;107777;1268;38584;-78
2022/04/24 06:28:58;;;;;;;12.10;10.90;;;;;;;10.83;84.63;95589.39;107817;1268;40436;-77
2022/04/24 06:31:29;;;;;;;13.50;12.10;;;;;;;11.00;85.06;95586.64;107751;1267;38164;-77
2022/04/24 06:34:00;;;;;;;13.40;12.00;;;;;;;11.38;85.30;95584.59;107768;1269;36745;-76
2022/04/24 06:36:31;;;;;;;13.10;11.80;;;;;;;11.76;84.82;95584.77;107781;1268;30875;-77
2022/04/24 06:39:03;;;;;;;12.20;10.90;;;;;;;11.92;83.49;95581.86;107815;1268;38608;-77
2022/04/24 06:41:34;;;;;;;12.70;11.40;;;;;;;11.95;82.36;95577.80;107800;1268;33862;-77
2022/04/24 06:44:06;;;;;;;12.60;11.10;;;;;;;11.73;81.48;95578.25;107880;1268;37382;-77
2022/04/24 06:46:36;;;;;;;12.30;11.00;;;;;;;11.63;81.92;95577.09;107884;1268;39607;-76
2022/04/24 06:49:07;;;;;;;12.60;11.40;;;;;;;11.69;81.79;95576.89;107615;1268;100966;-77
2022/04/24 06:51:38;;;;;;;12.90;11.60;;;;;;;11.76;82.03;95572.70;107849;1268;51647;-76
2022/04/24 06:54:09;;;;;;;11.90;10.70;;;;;;;12.55;83.37;95573.12;107822;1268;49096;-76
2022/04/24 06:56:40;;;;;;;11.90;10.50;;;;;;;13.81;83.44;95569.64;107869;1268;44813;-76
2022/04/24 06:59:11;;;;;;;11.30;9.70;;;;;;;14.98;80.12;95562.76;107946;1268;38425;-76
2022/04/24 07:01:42;;;;;;;11.90;10.60;;;;;;;14.61;77.01;95567.48;107825;1268;35574;-77
2022/04/24 07:04:13;;;;;;;11.30;10.20;;;;;;;14.12;76.33;95569.83;107939;1268;32753;-76
2022/04/24 07:06:43;;;;;;;11.70;10.50;;;;;;;13.75;75.95;95564.64;107814;1268;40679;-77
2022/04/24 07:09:15;;;;;;;12.90;10.90;;;;;;;13.37;75.97;95558.88;107886;1268;38768;-76
2022/04/24 07:11:46;;;;;;;12.00;10.40;;;;;;;13.10;76.53;95555.24;107759;1268;35266;-77
2022/04/24 07:14:17;;;;;;;11.70;10.50;;;;;;;12.98;77.08;95558.14;107764;1268;45464;-77
2022/04/24 07:16:54;;;;;;;13.00;11.50;;;;;;;12.71;76.66;95558.84;107702;1268;78173;-76
2022/04/24 07:19:25;;;;;;;12.40;11.10;;;;;;;12.42;77.21;95561.56;107789;1269;34914;-76
2022/04/24 07:21:57;;;;;;;13.40;12.00;;;;;;;12.31;77.55;95559.23;107878;1268;32256;-77
2022/04/24 07:24:27;;;;;;;13.10;11.70;;;;;;;12.01;76.75;95563.73;107815;1267;37361;-77
2022/04/24 07:26:58;;;;;;;12.80;11.00;;;;;;;11.74;77.63;95558.11;107826;1268;38857;-76
2022/04/24 07:29:29;;;;;;;12.80;11.30;;;;;;;11.62;78.45;95556.20;107721;1268;36848;-77
2022/04/24 07:32:00;;;;;;;11.80;10.60;;;;;;;11.50;78.87;95549.59;107880;1267;33924;-77
2022/04/24 07:34:31;;;;;;;12.50;11.20;;;;;;;11.38;79.14;95548.73;107831;1268;60206;-77
2022/04/24 07:37:01;;;;;;;12.10;10.80;;;;;;;11.22;79.37;95554.95;107811;1268;38882;-76
2022/04/24 07:39:32;;;;;;;11.20;10.00;;;;;;;11.11;79.71;95549.15;107649;1269;41726;-77
2022/04/24 07:42:03;;;;;;;12.20;10.90;;;;;;;10.99;79.99;95547.15;107824;1268;35673;-76
2022/04/24 07:44:34;;;;;;;13.10;11.20;;;;;;;10.93;80.38;95545.46;107828;1268;49229;-76
2022/04/24 07:47:05;;;;;;;12.10;10.30;;;;;;;10.87;80.63;95539.27;107792;1268;34274;-76
2022/04/24 07:49:36;;;;;;;12.80;11.30;;;;;;;10.79;80.98;95539.19;105885;1268;2574165;-76
2022/04/24 07:52:08;;;;;;;14.20;11.10;;;;;;;10.73;81.29;95539.10;107697;1268;71983;-76
2022/04/24 07:54:41;;;;;;;12.10;10.80;;;;;;;10.66;81.52;95536.60;107755;1268;65945;-76
2022/04/24 07:57:13;;;;;;;12.60;10.90;;;;;;;10.62;81.62;95537.87;107810;1268;53790;-77
2022/04/24 07:59:44;;;;;;;13.70;12.30;;;;;;;10.58;81.92;95538.47;107757;1267;99125;-77
2022/04/24 08:02:15;;;;;;;14.20;11.90;;;;;;;10.47;82.49;95539.49;107888;1268;42069;-77
2022/04/24 08:04:46;;;;;;;12.30;11.00;;;;;;;10.39;82.64;95536.85;107746;1268;96853;-77
2022/04/24 08:07:22;;;;;;;13.40;11.70;;;;;;;10.45;83.27;95534.04;107844;1268;64322;-76
2022/04/24 08:09:53;;;;;;;12.60;11.40;;;;;;;10.56;83.56;95532.53;107778;1268;63729;-76
2022/04/24 08:12:24;;;;;;;12.10;10.80;;;;;;;10.63;83.33;95530.98;107858;1268;33575;-76
2022/04/24 08:14:55;;;;;;;13.20;11.30;;;;;;;10.66;83.31;95537.97;107696;1271;41468;-76
2022/04/24 08:17:25;;;;;;;12.60;11.30;;;;;;;10.72;83.44;95537.64;107718;1268;78160;-77
2022/04/24 08:19:56;;;;;;;12.70;11.30;;;;;;;10.77;83.46;95537.40;107790;1268;39973;-77
2022/04/24 08:22:36;;;;;;;13.10;10.70;;;;;;;10.78;83.16;95537.63;107564;1268;109202;-76
2022/04/24 08:25:09;;;;;;;12.50;11.10;;;;;;;10.83;83.32;95537.54;107927;1268;31242;-77
2022/04/24 08:27:40;;;;;;;14.30;11.80;;;;;;;10.86;83.18;95540.83;107913;1268;36836;-76
2022/04/24 08:30:13;;;;;;;12.50;10.80;;;;;;;10.88;82.98;95542.27;107843;1268;57896;-76
2022/04/24 08:32:45;;;;;;;12.70;11.30;;;;;;;10.89;82.97;95537.13;107856;1268;65252;-77
2022/04/24 08:35:17;;;;;;;11.70;10.30;;;;;;;10.94;82.93;95533.91;107876;1268;31272;-77
2022/04/24 08:37:49;;;;;;;11.60;10.30;;;;;;;10.96;82.65;95535.66;107785;1268;34794;-77
2022/04/24 08:40:24;;;;;;;12.30;10.60;;;;;;;10.92;82.53;95530.70;107777;1268;33849;-77
2022/04/24 08:42:55;;;;;;;11.00;9.80;;;;;;;10.89;82.58;95529.07;107779;1268;42546;-77
2022/04/24 08:45:29;;;;;;;11.00;9.50;;;;;;;10.87;82.60;95529.56;107839;1268;39171;-78
2022/04/24 08:48:00;;;;;;;10.40;9.00;;;;;;;10.86;82.75;95527.41;107760;1268;30382;-77
2022/04/24 08:50:33;;;;;;;11.30;9.50;;;;;;;10.85;82.63;95530.02;107845;1268;39499;-77
2022/04/24 08:53:05;;;;;;;11.10;9.30;;;;;;;10.87;82.51;95531.78;107853;1268;32261;-78
2022/04/24 08:55:36;;;;;;;9.20;8.00;;;;;;;10.95;82.80;95532.77;107755;1268;35397;-77
2022/04/24 08:58:07;;;;;;;10.20;8.90;;;;;;;11.05;82.46;95538.15;107858;1268;35689;-77
2022/04/24 09:00:39;;;;;;;9.70;8.50;;;;;;;11.10;82.20;95537.63;107872;1268;35147;-77
2022/04/24 09:03:10;;;;;;;8.90;7.90;;;;;;;11.22;82.16;95532.83;107898;1268;34917;-77
2022/04/24 09:05:41;;;;;;;11.00;8.20;;;;;;;11.40;82.36;95533.06;107882;1268;33334;-77
2022/04/24 09:08:15;;;;;;;9.30;7.90;;;;;;;11.56;82.19;95538.23;107929;1268;36295;-77
2022/04/24 09:10:55;;;;;;;9.40;8.30;;;;;;;11.65;81.76;95540.57;107862;1268;33837;-78
2022/04/24 09:13:31;;;;;;;8.30;6.80;;;;;;;11.77;81.72;95537.55;107797;1268;33367;-77
2022/04/24 09:16:03;;;;;;;7.70;6.90;;;;;;;11.88;81.16;95535.34;107834;1268;31212;-76
2022/04/24 09:18:41;;;;;;;8.40;6.90;;;;;;;11.96;80.71;95529.42;107884;1268;37573;-77
2022/04/24 09:21:14;;;;;;;8.40;6.90;;;;;;;11.99;80.56;95524.06;107929;1268;38722;-76
2022/04/24 09:23:45;;;;;;;10.40;8.00;;;;;;;12.07;80.32;95528.79;107911;1268;32542;-77
2022/04/24 09:26:17;;;;;;;9.90;8.20;;;;;;;12.20;80.01;95522.29;107877;1268;36716;-75
2022/04/24 09:28:48;;;;;;;9.30;8.10;;;;;;;12.36;80.09;95523.27;107781;1268;35229;-76
2022/04/24 09:31:19;;;;;;;8.90;7.50;;;;;;;12.62;79.98;95522.08;107899;1268;33212;-77
2022/04/24 09:33:52;;;;;;;10.80;8.50;;;;;;;12.87;78.51;95513.15;107848;1268;35425;-76
2022/04/24 09:36:26;;;;;;;10.10;8.00;;;;;;;13.20;78.47;95510.05;107804;1268;40043;-76
2022/04/24 09:38:57;;;;;;;9.50;8.30;;;;;;;13.80;77.38;95508.89;107819;1268;39425;-76
2022/04/24 09:41:28;;;;;;;8.30;6.90;;;;;;;14.34;77.85;95503.26;107810;1268;36698;-77
2022/04/24 09:44:11;;;;;;;6.90;5.90;;;;;;;14.85;76.87;95499.34;107832;1268;32356;-77
2022/04/24 09:46:42;;;;;;;7.10;5.60;;;;;;;15.01;74.45;95503.06;107687;1268;44001;-77
2022/04/24 09:49:13;;;;;;;8.20;6.20;;;;;;;14.75;71.51;95498.82;107947;1267;30825;-76
2022/04/24 09:51:44;;;;;;;6.10;5.20;;;;;;;14.65;72.96;95494.20;107905;1267;35092;-76
2022/04/24 09:54:16;;;;;;;6.50;5.60;;;;;;;14.76;71.85;95494.11;107901;1268;54028;-77
2022/04/24 09:56:49;;;;;;;6.20;4.80;;;;;;;14.77;73.05;95485.44;107820;1268;40580;-78
2022/04/24 09:59:20;;;;;;;5.80;4.90;;;;;;;15.15;72.44;95484.08;107772;1268;36016;-78
2022/04/24 10:01:52;;;;;;;8.00;6.30;;;;;;;15.33;72.33;95481.32;107758;1268;35346;-77
2022/04/24 10:04:24;;;;;;;7.10;6.10;;;;;;;15.27;71.47;95480.02;107823;1268;36511;-78
2022/04/24 10:06:57;;;;;;;8.10;6.60;;;;;;;15.07;71.05;95484.21;107763;1268;32061;-77
2022/04/24 10:09:30;;;;;;;7.70;6.20;;;;;;;14.96;70.91;95487.20;107786;1268;35817;-77
2022/04/24 10:12:07;;;;;;;10.70;8.50;;;;;;;15.10;71.35;95484.61;107989;1268;33095;-77
2022/04/24 10:14:45;;;;;;;44.80;27.80;;;;;;;15.60;71.57;95481.39;107853;1268;33138;-77
2022/04/24 10:17:29;;;;;;;15.30;10.70;;;;;;;16.04;70.87;95479.19;107881;1268;34168;-77
2022/04/24 10:20:21;;;;;;;8.10;6.10;;;;;;;16.22;68.99;95479.02;107820;1268;33469;-77
2022/04/24 10:22:55;;;;;;;6.90;5.10;;;;;;;16.27;69.45;95473.57;107847;1268;37479;-77
2022/04/24 10:25:35;;;;;;;5.40;4.60;;;;;;;16.48;69.08;95473.45;107761;1268;37023;-77
2022/04/24 10:28:16;;;;;;;3.80;3.30;;;;;;;16.39;67.89;95477.16;107801;1268;36305;-77
2022/04/24 10:30:58;;;;;;;2.80;2.10;;;;;;;16.28;66.91;95471.07;107854;1268;39603;-77
2022/04/24 10:33:32;;;;;;;2.40;2.20;;;;;;;16.19;66.65;95466.99;107795;1268;34432;-77
2022/04/24 10:36:13;;;;;;;4.80;3.30;;;;;;;16.31;66.74;95464.42;107679;1270;48277;-77
2022/04/24 10:38:50;;;;;;;2.90;2.30;;;;;;;16.39;66.12;95457.91;107670;1270;32561;-78
2022/04/24 10:41:23;;;;;;;3.80;3.00;;;;;;;16.57;66.21;95455.46;107848;1268;33918;-78
2022/04/24 10:43:58;;;;;;;2.40;1.90;;;;;;;17.06;66.20;95453.14;107857;1268;42066;-78
2022/04/24 10:46:33;;;;;;;1.90;1.70;;;;;;;17.37;64.14;95441.84;107784;1268;35032;-78
2022/04/24 10:49:11;;;;;;;2.90;1.80;;;;;;;17.41;62.35;95444.38;107766;1268;37466;-78
2022/04/24 10:51:44;;;;;;;2.50;1.50;;;;;;;17.39;63.22;95440.34;107846;1268;32302;-78
2022/04/24 10:54:17;;;;;;;2.70;1.40;;;;;;;17.37;62.65;95438.52;107883;1267;33387;-78
2022/04/24 10:56:49;;;;;;;2.20;1.30;;;;;;;17.03;57.35;95440.98;107778;1267;39468;-78
2022/04/24 10:59:22;;;;;;;2.40;1.50;;;;;;;16.33;57.66;95437.19;107755;1268;62895;-78
2022/04/24 11:01:55;;;;;;;2.50;1.60;;;;;;;16.34;61.53;95433.86;107724;1267;39615;-78
2022/04/24 11:04:26;;;;;;;1.70;1.40;;;;;;;16.81;60.91;95434.29;107793;1268;37514;-78
2022/04/24 11:06:59;;;;;;;2.00;1.40;;;;;;;17.06;60.85;95428.58;107815;1268;66867;-78
2022/04/24 11:09:35;;;;;;;2.50;1.50;;;;;;;17.42;61.71;95417.88;107810;1268;31506;-78
2022/04/24 11:12:11;;;;;;;1.90;1.10;;;;;;;17.84;61.28;95413.11;107803;1268;31922;-78
2022/04/24 11:14:42;;;;;;;2.90;1.30;;;;;;;18.02;58.20;95410.09;107862;1268;43149;-78
2022/04/24 11:17:13;;;;;;;2.20;1.30;;;;;;;17.94;58.62;95402.20;107851;1268;32454;-78
2022/04/24 11:19:44;;;;;;;4.30;1.50;;;;;;;18.11;58.65;95406.50;107840;1268;54351;-78
2022/04/24 11:22:15;;;;;;;1.40;1.30;;;;;;;17.95;55.52;95409.95;107916;1268;39255;-78
2022/04/24 11:24:46;;;;;;;3.30;1.90;;;;;;;17.89;58.00;95408.08;107845;1268;49143;-79
2022/04/24 11:27:17;;;;;;;2.90;1.50;;;;;;;18.29;57.97;95393.71;107812;1268;42337;-78
2022/04/24 11:29:48;;;;;;;3.90;1.60;;;;;;;18.27;55.03;95387.64;107737;1268;63127;-78
2022/04/24 11:32:22;;;;;;;4.60;1.60;;;;;;;17.48;52.54;95397.88;107765;1268;33661;-78
2022/04/24 11:34:53;;;;;;;2.90;1.10;;;;;;;16.74;54.25;95393.20;107783;1267;36297;-78
2022/04/24 11:37:25;;;;;;;3.60;1.50;;;;;;;16.46;55.15;95386.23;107833;1268;36187;-78